createdAt,value
2022-08-09T00:00:20.959Z,102217.91
2022-08-09T00:02:49.361Z,102219.28
2022-08-09T00:06:19.507Z,102221.50
2022-08-09T00:08:10.217Z,102224.75
2022-08-09T00:10:39.229Z,102213.47
2022-08-09T00:13:16.729Z,102208.53
2022-08-09T00:15:59.040Z,102204.00
2022-08-09T00:18:27.199Z,102221.44
2022-08-09T00:20:55.953Z,102221.56
2022-08-09T00:23:58.126Z,102211.06
2022-08-09T00:26:11.147Z,102213.16
2022-08-09T00:28:39.538Z,102212.63
2022-08-09T00:31:30.609Z,102215.63
2022-08-09T00:33:55.709Z,102205.94
2022-08-09T00:36:29.658Z,102211.50
2022-08-09T00:38:58.525Z,102217.94
2022-08-09T00:44:13.805Z,102211.88
2022-08-09T00:44:25.644Z,102211.38
2022-08-09T00:47:04.709Z,102219.75
2022-08-09T00:49:36.846Z,102206.38
2022-08-09T00:52:06.075Z,102209.25
2022-08-09T00:54:43.315Z,102205.91
2022-08-09T00:57:12.544Z,102207.00
2022-08-09T00:59:46.546Z,102212.19
2022-08-09T01:02:22.655Z,102205.00
2022-08-09T01:05:14.037Z,102205.34
2022-08-09T01:08:40.505Z,102197.47
2022-08-09T01:11:34.941Z,102200.53
2022-08-09T01:14:11.810Z,102201.75
2022-08-09T01:16:47.234Z,102203.81
2022-08-09T01:20:01.644Z,102203.09
2022-08-09T01:24:01.187Z,102197.13
2022-08-09T01:26:34.042Z,102207.16
2022-08-09T01:29:05.354Z,102206.41
2022-08-09T01:32:29.671Z,102200.09
2022-08-09T01:34:25.094Z,102205.41
2022-08-09T01:36:56.512Z,102205.53
2022-08-09T01:39:26.337Z,102202.06
2022-08-09T01:42:01.245Z,102214.13
2022-08-09T01:44:32.699Z,102209.19
2022-08-09T01:47:03.643Z,102214.75
2022-08-09T01:49:38.986Z,102207.28
2022-08-09T01:52:14.523Z,102210.00
2022-08-09T01:54:49.273Z,102210.94
2022-08-09T01:57:45.868Z,102206.06
2022-08-09T02:00:34.506Z,102211.84
2022-08-09T02:03:05.594Z,102219.34
2022-08-09T02:05:38.215Z,102213.28
2022-08-09T02:08:39.539Z,102207.97
2022-08-09T02:11:16.835Z,102210.56
2022-08-09T02:14:02.143Z,102215.59
2022-08-09T02:17:00.157Z,102219.84
2022-08-09T02:19:23.369Z,102224.22
2022-08-09T02:21:56.047Z,102224.78
2022-08-09T02:24:35.310Z,102211.88
2022-08-09T02:27:07.477Z,102217.53
2022-08-09T02:29:46.200Z,102217.13
2022-08-09T02:32:19.558Z,102228.50
2022-08-09T02:34:56.030Z,102218.97
2022-08-09T02:37:31.734Z,102217.47
2022-08-09T02:40:09.258Z,102230.16
2022-08-09T02:42:42.472Z,102225.94
2022-08-09T02:45:18.174Z,102232.53
2022-08-09T02:47:59.134Z,102226.59
2022-08-09T02:50:35.162Z,102223.28
2022-08-09T02:53:09.953Z,102227.19
2022-08-09T02:55:58.569Z,102223.81
2022-08-09T02:58:36.182Z,102234.69
2022-08-09T03:01:08.271Z,102225.91
2022-08-09T03:04:16.963Z,102225.31
2022-08-09T03:06:29.288Z,102223.94
2022-08-09T03:08:57.806Z,102222.28
2022-08-09T03:12:06.629Z,102220.56
2022-08-09T03:14:14.211Z,102219.88
2022-08-09T03:16:45.031Z,102215.34
2022-08-09T03:19:52.699Z,102208.00
2022-08-09T03:22:12.479Z,102209.81
2022-08-09T03:24:52.100Z,102205.59
2022-08-09T03:27:21.532Z,102217.88
2022-08-09T03:29:57.777Z,102214.16
2022-08-09T03:32:36.947Z,102211.34
2022-08-09T03:35:14.966Z,102215.22
2022-08-09T03:37:56.239Z,102224.88
2022-08-09T03:40:25.461Z,102212.81
2022-08-09T03:42:58.405Z,102216.94
2022-08-09T03:46:05.365Z,102208.16
2022-08-09T03:48:19.028Z,102211.75
2022-08-09T03:50:58.336Z,102213.75
2022-08-09T03:53:32.169Z,102210.41
2022-08-09T03:55:59.455Z,102214.19
2022-08-09T03:58:28.183Z,102226.22
2022-08-09T04:00:55.929Z,102224.56
2022-08-09T04:03:46.429Z,102234.19
2022-08-09T04:06:13.556Z,102232.75
2022-08-09T04:08:41.267Z,102232.00
2022-08-09T04:11:13.606Z,102233.72
2022-08-09T04:14:36.766Z,102237.41
2022-08-09T04:16:28.073Z,102245.53
2022-08-09T04:18:55.419Z,102246.53
2022-08-09T04:21:24.327Z,102249.00
2022-08-09T04:23:54.374Z,102251.06
2022-08-09T04:26:25.151Z,102249.44
2022-08-09T04:29:07.863Z,102257.75
2022-08-09T04:31:47.209Z,102258.72
2022-08-09T04:34:19.010Z,102257.66
2022-08-09T04:36:57.859Z,102256.72
2022-08-09T04:39:25.037Z,102255.63
2022-08-09T04:41:59.834Z,102261.47
2022-08-09T04:44:27.212Z,102261.28
2022-08-09T04:46:59.010Z,102251.88
2022-08-09T04:49:53.091Z,102265.13
2022-08-09T04:52:32.354Z,102256.56
2022-08-09T04:55:02.265Z,102267.34
2022-08-09T04:57:53.889Z,102255.78
2022-08-09T05:00:18.717Z,102258.19
2022-08-09T05:02:51.682Z,102261.69
2022-08-09T05:05:32.002Z,102268.56
2022-08-09T05:08:07.654Z,102273.88
2022-08-09T05:10:36.749Z,102265.28
2022-08-09T05:13:04.100Z,102272.13
2022-08-09T05:15:39.108Z,102273.56
2022-08-09T05:18:38.601Z,102268.44
2022-08-09T05:21:13.436Z,102273.00
2022-08-09T05:24:00.403Z,102274.03
2022-08-09T05:26:41.085Z,102273.91
2022-08-09T05:29:21.130Z,102279.19
2022-08-09T05:31:58.900Z,102275.63
2022-08-09T05:34:32.660Z,102274.47
2022-08-09T05:37:06.902Z,102286.56
2022-08-09T05:39:43.200Z,102286.34
2022-08-09T05:42:17.509Z,102292.59
2022-08-09T05:44:54.303Z,102284.25
2022-08-09T05:47:24.740Z,102275.25
2022-08-09T05:50:30.564Z,102291.28
2022-08-09T05:52:43.620Z,102296.59
2022-08-09T05:55:20.480Z,102295.03
2022-08-09T05:57:50.683Z,102295.16
2022-08-09T06:00:24.118Z,102295.31
2022-08-09T06:02:54.557Z,102297.91
2022-08-09T06:05:31.324Z,102303.72
2022-08-09T06:08:13.097Z,102302.59
2022-08-09T06:10:40.064Z,102308.81
2022-08-09T06:13:12.555Z,102304.84
2022-08-09T06:15:46.969Z,102311.91
2022-08-09T06:18:15.856Z,102316.59
2022-08-09T06:20:54.916Z,102318.56
2022-08-09T06:23:54.933Z,102312.34
2022-08-09T06:26:22.085Z,102303.41
2022-08-09T06:29:00.166Z,102315.94
2022-08-09T06:31:39.422Z,102311.81
2022-08-09T06:34:25.958Z,102314.25
2022-08-09T06:36:57.301Z,102320.53
2022-08-09T06:39:48.707Z,102312.94
2022-08-09T06:42:24.856Z,102319.41
2022-08-09T06:44:59.081Z,102321.41
2022-08-09T06:47:40.067Z,102335.06
2022-08-09T06:50:16.668Z,102325.69
2022-08-09T06:52:47.187Z,102321.78
2022-08-09T06:55:18.964Z,102326.75
2022-08-09T06:58:03.526Z,102319.72
2022-08-09T07:00:50.510Z,102329.28
2022-08-09T07:03:27.637Z,102320.25
2022-08-09T07:06:04.142Z,102314.94
2022-08-09T07:08:34.608Z,102312.13
2022-08-09T07:11:06.580Z,102313.56
2022-08-09T07:13:45.190Z,102309.13
2022-08-09T07:16:42.429Z,102302.06
2022-08-09T07:19:10.648Z,102308.81
2022-08-09T07:21:50.154Z,102313.84
2022-08-09T07:24:32.483Z,102323.94
2022-08-09T07:27:10.855Z,102324.75
2022-08-09T07:29:58.428Z,102326.72
2022-08-09T07:32:32.256Z,102323.06
2022-08-09T07:35:11.593Z,102327.38
2022-08-09T07:37:43.202Z,102326.34
2022-08-09T07:40:20.366Z,102317.19
2022-08-09T07:42:56.214Z,102321.31
2022-08-09T07:45:37.462Z,102314.13
2022-08-09T07:48:07.415Z,102324.44
2022-08-09T07:50:36.844Z,102332.59
2022-08-09T07:53:05.202Z,102331.19
2022-08-09T07:55:41.365Z,102332.28
2022-08-09T07:58:21.646Z,102314.81
2022-08-09T08:00:55.993Z,102315.38
2022-08-09T08:03:26.833Z,102321.88
2022-08-09T08:05:58.327Z,102311.13
2022-08-09T08:09:00.719Z,102314.78
2022-08-09T08:12:09.212Z,102313.78
2022-08-09T08:14:00.934Z,102302.97
2022-08-09T08:16:29.681Z,102305.88
2022-08-09T08:18:59.846Z,102313.22
2022-08-09T08:21:30.756Z,102302.72
2022-08-09T08:23:57.675Z,102312.94
2022-08-09T08:26:47.479Z,102318.38
2022-08-09T08:29:20.395Z,102324.03
2022-08-09T08:32:03.204Z,102309.97
2022-08-09T08:34:34.632Z,102313.47
2022-08-09T08:37:03.182Z,102311.22
2022-08-09T08:39:39.158Z,102309.31
2022-08-09T08:42:11.232Z,102301.44
2022-08-09T08:44:39.481Z,102313.53
2022-08-09T08:47:12.900Z,102312.31
2022-08-09T08:49:47.305Z,102310.97
2022-08-09T08:55:15.355Z,102313.78
2022-08-09T08:57:57.204Z,102305.81
2022-08-09T09:00:30.026Z,102303.38
2022-08-09T09:03:11.729Z,102308.41
2022-08-09T09:05:58.826Z,102306.34
2022-08-09T09:08:37.900Z,102308.94
2022-08-09T09:11:09.049Z,102304.94
2022-08-09T09:13:56.830Z,102305.63
2022-08-09T09:16:34.204Z,102311.16
2022-08-09T09:19:37.112Z,102313.22
2022-08-09T09:22:05.569Z,102301.63
2022-08-09T09:24:47.582Z,102304.16
2022-08-09T09:28:06.306Z,102306.69
2022-08-09T09:30:34.498Z,102309.22
2022-08-09T09:33:16.890Z,102299.94
2022-08-09T09:36:01.820Z,102297.03
2022-08-09T09:38:49.683Z,102300.22
2022-08-09T09:41:33.052Z,102310.53
2022-08-09T09:44:10.741Z,102297.19
2022-08-09T09:46:50.415Z,102299.13
2022-08-09T09:49:32.232Z,102297.81
2022-08-09T09:52:16.477Z,102294.56
2022-08-09T09:55:24.330Z,102300.22
2022-08-09T09:58:19.067Z,102297.59
2022-08-09T10:00:58.701Z,102296.84
2022-08-09T10:03:57.256Z,102296.97
2022-08-09T10:06:47.139Z,102294.06
2022-08-09T10:09:22.504Z,102292.56
2022-08-09T10:12:11.892Z,102287.41
2022-08-09T10:14:43.919Z,102288.06
2022-08-09T10:17:39.524Z,102294.66
2022-08-09T10:20:35.516Z,102300.28
2022-08-09T10:23:34.020Z,102282.97
2022-08-09T10:26:06.996Z,102290.66
2022-08-09T10:28:40.573Z,102289.47
2022-08-09T10:34:09.993Z,102285.78
2022-08-09T10:36:45.559Z,102291.56
2022-08-09T10:39:15.988Z,102283.13
2022-08-09T10:41:47.984Z,102286.78
2022-08-09T10:44:21.656Z,102286.84
2022-08-09T10:48:11.905Z,102294.78
2022-08-09T10:50:31.213Z,102284.50
2022-08-09T10:53:10.482Z,102283.19
2022-08-09T10:55:55.005Z,102282.72
2022-08-09T10:58:33.942Z,102278.47
2022-08-09T11:03:06.771Z,102285.41
2022-08-09T11:04:27.807Z,102296.13
2022-08-09T11:07:01.453Z,102294.94
2022-08-09T11:09:47.917Z,102293.16
2022-08-09T11:12:29.370Z,102288.91
2022-08-09T11:15:19.090Z,102276.03
2022-08-09T11:17:53.256Z,102283.59
2022-08-09T11:20:47.595Z,102284.56
2022-08-09T11:23:17.071Z,102281.66
2022-08-09T11:25:51.208Z,102274.00
2022-08-09T11:28:33.993Z,102270.72
2022-08-09T11:31:15.720Z,102274.44
2022-08-09T11:34:09.952Z,102268.66
2022-08-09T11:36:44.349Z,102260.41
2022-08-09T11:39:11.549Z,102259.72
2022-08-09T11:41:40.658Z,102260.66
2022-08-09T11:44:08.720Z,102263.28
2022-08-09T11:46:57.244Z,102248.91
2022-08-09T11:50:53.706Z,102257.41
2022-08-09T11:53:21.256Z,102257.00
2022-08-09T11:55:52.297Z,102246.69
2022-08-09T11:58:32.483Z,102242.53
2022-08-09T12:01:37.864Z,102240.41
2022-08-09T12:04:02.914Z,102255.06
2022-08-09T12:06:35.232Z,102238.69
2022-08-09T12:09:17.573Z,102236.88
2022-08-09T12:12:02.911Z,102245.25
2022-08-09T12:14:41.051Z,102241.44
2022-08-09T12:17:33.983Z,102237.22
2022-08-09T12:20:21.517Z,102236.31
2022-08-09T12:22:55.901Z,102221.16
2022-08-09T12:25:36.060Z,102220.34
2022-08-09T12:29:10.358Z,102221.22
2022-08-09T12:31:01.758Z,102223.78
2022-08-09T12:33:51.115Z,102219.38
2022-08-09T12:36:31.461Z,102210.63
2022-08-09T12:39:00.583Z,102214.25
2022-08-09T12:41:39.308Z,102213.75
2022-08-09T12:44:10.119Z,102204.19
2022-08-09T12:46:49.108Z,102210.63
2022-08-09T12:49:17.837Z,102196.25
2022-08-09T12:52:01.078Z,102201.59
2022-08-09T12:54:29.192Z,102194.38
2022-08-09T12:56:58.919Z,102199.38
2022-08-09T12:59:57.440Z,102188.47
2022-08-09T13:02:19.948Z,102192.34
2022-08-09T13:05:02.606Z,102190.56
2022-08-09T13:07:50.280Z,102201.94
2022-08-09T13:10:17.465Z,102190.34
2022-08-09T13:13:08.979Z,102186.72
2022-08-09T13:15:37.443Z,102194.44
2022-08-09T13:18:09.575Z,102184.81
2022-08-09T13:21:04.116Z,102192.31
2022-08-09T13:24:44.451Z,102166.78
2022-08-09T13:26:41.079Z,102172.72
2022-08-09T13:29:15.291Z,102167.75
2022-08-09T13:32:19.355Z,102162.16
2022-08-09T13:34:49.084Z,102162.34
2022-08-09T13:37:24.458Z,102162.09
2022-08-09T13:41:55.826Z,102160.28
2022-08-09T13:42:54.797Z,102151.47
2022-08-09T13:45:21.906Z,102157.44
2022-08-09T13:47:59.638Z,102155.47
2022-08-09T13:50:30.632Z,102151.84
2022-08-09T13:52:58.575Z,102161.88
2022-08-09T13:55:28.930Z,102162.66
2022-08-09T13:57:58.313Z,102149.06
2022-08-09T14:00:28.466Z,102156.06
2022-08-09T14:03:03.155Z,102150.75
2022-08-09T14:05:56.771Z,102152.28
2022-08-09T14:08:28.069Z,102154.47
2022-08-09T14:10:56.429Z,102151.06
2022-08-09T14:14:16.037Z,102153.41
2022-08-09T14:16:16.754Z,102157.41
2022-08-09T14:18:49.525Z,102154.25
2022-08-09T14:21:20.138Z,102157.19
2022-08-09T14:23:54.506Z,102160.78
2022-08-09T14:26:32.670Z,102156.47
2022-08-09T14:30:04.321Z,102132.66
2022-08-09T14:32:04.607Z,102150.75
2022-08-09T14:34:41.136Z,102143.47
2022-08-09T14:37:09.923Z,102148.78
2022-08-09T14:39:48.040Z,102146.31
2022-08-09T14:42:32.158Z,102155.34
2022-08-09T14:46:59.035Z,102144.84
2022-08-09T14:47:58.423Z,102149.13
2022-08-09T14:50:30.422Z,102144.81
2022-08-09T14:52:59.078Z,102147.25
2022-08-09T14:55:29.239Z,102146.31
2022-08-09T14:58:03.201Z,102139.91
2022-08-09T15:00:33.313Z,102144.63
2022-08-09T15:03:03.872Z,102151.72
2022-08-09T15:05:31.675Z,102144.25
2022-08-09T15:07:58.804Z,102150.66
2022-08-09T15:10:27.718Z,102147.63
2022-08-09T15:12:56.118Z,102154.13
2022-08-09T15:15:24.496Z,102146.28
2022-08-09T15:17:56.008Z,102146.78
2022-08-09T15:21:55.663Z,102152.75
2022-08-09T15:24:06.054Z,102150.00
2022-08-09T15:25:58.422Z,102150.84
2022-08-09T15:28:28.463Z,102140.34
2022-08-09T15:31:10.345Z,102140.59
2022-08-09T15:34:18.243Z,102140.19
2022-08-09T15:36:30.356Z,102134.22
2022-08-09T15:39:00.909Z,102128.06
2022-08-09T15:41:31.437Z,102133.19
2022-08-09T15:44:02.114Z,102129.31
2022-08-09T15:46:34.326Z,102143.41
2022-08-09T15:49:22.732Z,102132.97
2022-08-09T15:52:03.528Z,102128.28
2022-08-09T15:54:44.632Z,102131.91
2022-08-09T15:57:34.315Z,102120.59
2022-08-09T16:00:15.154Z,102121.63
2022-08-09T16:02:54.625Z,102123.78
2022-08-09T16:05:24.419Z,102125.28
2022-08-09T16:07:51.400Z,102118.66
2022-08-09T16:10:54.628Z,102118.47
2022-08-09T16:13:18.489Z,102127.81
2022-08-09T16:16:12.232Z,102122.28
2022-08-09T16:18:34.149Z,102115.63
2022-08-09T16:21:01.051Z,102119.28
2022-08-09T16:23:28.227Z,102114.56
2022-08-09T16:26:02.680Z,102115.16
2022-08-09T16:28:30.158Z,102108.75
2022-08-09T16:30:59.666Z,102111.44
2022-08-09T16:33:27.419Z,102113.53
2022-08-09T16:36:00.931Z,102109.66
2022-08-09T16:38:31.591Z,102117.75
2022-08-09T16:40:59.333Z,102115.16
2022-08-09T16:43:31.734Z,102094.56
2022-08-09T16:45:58.707Z,102108.47
2022-08-09T16:48:39.803Z,102109.13
2022-08-09T16:51:14.789Z,102108.25
2022-08-09T16:54:17.983Z,102103.31
2022-08-09T16:56:35.155Z,102112.69
2022-08-09T16:59:10.506Z,102105.38
2022-08-09T17:01:38.679Z,102105.38
2022-08-09T17:04:06.513Z,102113.25
2022-08-09T17:07:04.754Z,102106.16
2022-08-09T17:09:45.159Z,102113.16
2022-08-09T17:12:09.134Z,102111.94
2022-08-09T17:14:36.554Z,102108.09
2022-08-09T17:17:23.371Z,102116.81
2022-08-09T17:20:29.904Z,102112.25
2022-08-09T17:22:51.709Z,102117.34
2022-08-09T17:25:22.218Z,102114.28
2022-08-09T17:27:54.428Z,102126.56
2022-08-09T17:30:28.782Z,102124.59
2022-08-09T17:33:00.839Z,102127.69
2022-08-09T17:35:34.643Z,102128.69
2022-08-09T17:38:14.613Z,102127.09
2022-08-09T17:40:49.362Z,102131.91
2022-08-09T17:43:33.581Z,102139.09
2022-08-09T17:46:09.507Z,102128.34
2022-08-09T17:48:52.183Z,102137.41
2022-08-09T17:51:20.244Z,102129.91
2022-08-09T17:53:52.228Z,102142.53
2022-08-09T17:56:32.360Z,102140.44
2022-08-09T17:59:09.360Z,102140.94
2022-08-09T18:01:58.146Z,102139.41
2022-08-09T18:04:26.765Z,102145.06
2022-08-09T18:06:55.135Z,102143.81
2022-08-09T18:09:41.019Z,102149.97
2022-08-09T18:12:19.460Z,102143.22
2022-08-09T18:14:54.753Z,102152.44
2022-08-09T18:18:01.057Z,102141.84
2022-08-09T18:20:57.183Z,102153.16
2022-08-09T18:22:59.850Z,102159.34
2022-08-09T18:25:50.769Z,102160.06
2022-08-09T18:30:39.812Z,102149.75
2022-08-09T18:31:10.190Z,102147.72
2022-08-09T18:33:37.292Z,102144.84
2022-08-09T18:36:09.007Z,102148.53
2022-08-09T18:38:55.027Z,102147.19
2022-08-09T18:41:27.625Z,102155.72
2022-08-09T18:43:54.770Z,102148.16
2022-08-09T18:46:50.611Z,102150.63
2022-08-09T18:49:08.664Z,102152.56
2022-08-09T18:51:38.416Z,102161.75
2022-08-09T18:54:28.570Z,102169.88
2022-08-09T18:57:05.399Z,102172.34
2022-08-09T18:59:37.555Z,102164.59
2022-08-09T19:02:18.644Z,102174.78
2022-08-09T19:04:47.881Z,102165.50
2022-08-09T19:07:33.898Z,102178.44
2022-08-09T19:10:15.691Z,102175.53
2022-08-09T19:12:50.584Z,102174.16
2022-08-09T19:15:26.922Z,102177.66
2022-08-09T19:17:54.860Z,102171.13
2022-08-09T19:20:24.021Z,102185.78
2022-08-09T19:22:54.424Z,102181.69
2022-08-09T19:25:42.674Z,102187.03
2022-08-09T19:28:13.119Z,102198.63
2022-08-09T19:30:44.711Z,102192.78
2022-08-09T19:33:19.680Z,102199.16
2022-08-09T19:35:58.074Z,102199.84
2022-08-09T19:38:27.490Z,102195.16
2022-08-09T19:40:57.485Z,102199.50
2022-08-09T19:44:00.666Z,102198.91
2022-08-09T19:46:14.775Z,102199.09
2022-08-09T19:49:02.396Z,102205.75
2022-08-09T19:51:31.025Z,102190.72
2022-08-09T19:54:01.667Z,102186.56
2022-08-09T19:56:29.709Z,102193.75
2022-08-09T19:59:18.214Z,102185.81
2022-08-09T20:02:04.420Z,102193.84
2022-08-09T20:04:40.336Z,102187.59
2022-08-09T20:07:21.142Z,102193.91
2022-08-09T20:09:48.819Z,102205.72
2022-08-09T20:12:29.970Z,102200.00
2022-08-09T20:16:31.753Z,102200.34
2022-08-09T20:17:54.248Z,102199.94
2022-08-09T20:20:22.228Z,102200.94
2022-08-09T20:22:51.636Z,102190.75
2022-08-09T20:25:23.458Z,102197.03
2022-08-09T20:27:50.969Z,102202.00
2022-08-09T20:30:23.678Z,102201.44
2022-08-09T20:32:52.493Z,102196.28
2022-08-09T20:35:21.602Z,102199.19
2022-08-09T20:38:22.477Z,102207.28
2022-08-09T20:40:36.354Z,102205.69
2022-08-09T20:43:18.180Z,102203.28
2022-08-09T20:46:00.006Z,102212.00
2022-08-09T20:48:30.935Z,102207.13
2022-08-09T20:51:00.285Z,102206.00
2022-08-09T20:53:37.742Z,102203.91
2022-08-09T20:56:19.936Z,102212.84
2022-08-09T20:58:54.208Z,102213.03
2022-08-09T21:01:34.274Z,102205.19
2022-08-09T21:05:52.967Z,102221.41
2022-08-09T21:07:12.150Z,102215.91
2022-08-09T21:09:56.987Z,102218.09
2022-08-09T21:15:23.599Z,102221.03
2022-08-09T21:18:24.923Z,102229.00
2022-08-09T21:20:54.401Z,102223.44
2022-08-09T21:23:35.974Z,102234.41
2022-08-09T21:26:09.813Z,102235.72
2022-08-09T21:28:37.176Z,102240.34
2022-08-09T21:31:17.322Z,102242.94
2022-08-09T21:33:50.333Z,102237.31
2022-08-09T21:36:20.617Z,102241.28
2022-08-09T21:38:58.088Z,102239.63
2022-08-09T21:42:03.720Z,102236.97
2022-08-09T21:44:33.371Z,102235.41
2022-08-09T21:47:17.387Z,102237.75
2022-08-09T21:49:45.231Z,102238.94
2022-08-09T21:52:17.018Z,102231.88
2022-08-09T21:55:03.316Z,102237.47
2022-08-09T21:57:38.324Z,102225.16
2022-08-09T22:00:32.252Z,102221.94
2022-08-09T22:03:19.274Z,102223.25
2022-08-09T22:05:47.583Z,102228.75
2022-08-09T22:08:18.841Z,102224.97
2022-08-09T22:11:05.082Z,102230.47
2022-08-09T22:13:37.314Z,102235.97
2022-08-09T22:16:07.725Z,102243.44
2022-08-09T22:18:37.966Z,102243.34
2022-08-09T22:21:09.875Z,102241.78
2022-08-09T22:24:01.213Z,102253.50
2022-08-09T22:26:34.791Z,102257.69
2022-08-09T22:29:09.436Z,102261.22
2022-08-09T22:31:50.483Z,102258.75
2022-08-09T22:34:26.848Z,102258.03
2022-08-09T22:36:56.809Z,102257.34
2022-08-09T22:39:57.985Z,102256.78
2022-08-09T22:42:21.380Z,102251.31
2022-08-09T22:45:00.537Z,102245.81
2022-08-09T22:48:10.616Z,102263.69
2022-08-09T22:50:29.461Z,102266.72
2022-08-09T22:52:58.170Z,102256.91
2022-08-09T22:55:39.605Z,102260.09
2022-08-09T22:58:20.212Z,102258.50
2022-08-09T23:00:58.069Z,102252.06
2022-08-09T23:04:02.818Z,102256.25
2022-08-09T23:06:14.071Z,102258.44
2022-08-09T23:08:45.541Z,102262.19
2022-08-09T23:11:18.340Z,102264.91
2022-08-09T23:13:53.170Z,102253.38
2022-08-09T23:16:23.150Z,102246.94
2022-08-09T23:18:50.125Z,102240.56
2022-08-09T23:21:23.767Z,102254.84
2022-08-09T23:24:05.240Z,102246.09
2022-08-09T23:26:37.331Z,102245.81
2022-08-09T23:29:11.200Z,102247.84
2022-08-09T23:31:38.275Z,102246.13
2022-08-09T23:34:05.200Z,102241.22
2022-08-09T23:36:34.673Z,102242.94
2022-08-09T23:39:03.076Z,102243.53
2022-08-09T23:41:30.136Z,102242.38
2022-08-09T23:43:59.415Z,102247.72
2022-08-09T23:46:28.461Z,102249.00
2022-08-09T23:48:55.928Z,102249.72
2022-08-09T23:51:22.911Z,102246.69
2022-08-09T23:53:52.286Z,102242.94
2022-08-09T23:56:52.354Z,102244.94
2022-08-09T23:59:07.413Z,102245.84
